createdAt,value
2019-01-25T00:00:32.675Z,53.60
2019-01-25T00:03:03.419Z,54.10
2019-01-25T00:05:30.526Z,53.60
2019-01-25T00:07:59.476Z,51.23
2019-01-25T00:10:28.409Z,51.93
2019-01-25T00:12:57.331Z,53.73
2019-01-25T00:15:26.288Z,53.20
2019-01-25T00:17:55.255Z,53.60
2019-01-25T00:20:24.200Z,51.10
2019-01-25T00:22:53.130Z,53.07
2019-01-25T00:25:22.084Z,54.67
2019-01-25T00:27:51.016Z,54.53
2019-01-25T00:30:19.981Z,57.47
2019-01-25T00:32:48.913Z,56.87
2019-01-25T00:35:17.880Z,58.60
2019-01-25T00:37:46.828Z,60.27
2019-01-25T00:40:15.851Z,56.53
2019-01-25T00:42:44.786Z,57.27
2019-01-25T00:45:13.736Z,58.10
2019-01-25T00:47:42.682Z,56.00
2019-01-25T00:50:14.813Z,59.20
2019-01-25T00:52:43.761Z,58.93
2019-01-25T00:55:12.693Z,57.00
2019-01-25T00:57:41.729Z,59.63
2019-01-25T01:00:14.254Z,59.70
2019-01-25T01:02:43.185Z,59.67
2019-01-25T01:05:12.148Z,60.67
2019-01-25T01:07:41.099Z,60.67
2019-01-25T01:10:14.255Z,60.83
2019-01-25T01:12:39.610Z,60.23
2019-01-25T01:15:09.363Z,59.80
2019-01-25T01:17:38.303Z,63.13
2019-01-25T01:20:09.805Z,61.57
2019-01-25T01:22:38.746Z,60.33
2019-01-25T01:25:07.775Z,58.80
2019-01-25T01:27:36.733Z,88.10
2019-01-25T01:30:06.117Z,67.87
2019-01-25T01:32:35.042Z,60.77
2019-01-25T01:35:04.042Z,62.90
2019-01-25T01:37:32.967Z,61.77
2019-01-25T01:40:01.915Z,59.47
2019-01-25T01:42:30.864Z,57.97
2019-01-25T01:44:59.808Z,60.07
2019-01-25T01:47:28.762Z,57.17
2019-01-25T01:49:57.679Z,57.50
2019-01-25T01:52:26.639Z,58.37
2019-01-25T01:54:55.578Z,60.93
2019-01-25T01:57:24.523Z,57.90
2019-01-25T01:59:53.475Z,59.17
2019-01-25T02:02:22.436Z,84.97
2019-01-25T02:04:51.416Z,65.67
2019-01-25T02:07:20.353Z,63.10
2019-01-25T02:09:49.296Z,60.83
2019-01-25T02:12:18.290Z,58.20
2019-01-25T02:14:47.216Z,57.80
2019-01-25T02:17:16.178Z,56.83
2019-01-25T02:19:45.129Z,58.07
2019-01-25T02:22:14.077Z,55.57
2019-01-25T02:24:43.009Z,59.53
2019-01-25T02:27:11.943Z,59.57
2019-01-25T02:29:40.895Z,59.73
2019-01-25T02:32:09.804Z,58.77
2019-01-25T02:34:38.762Z,59.43
2019-01-25T02:37:07.701Z,57.43
2019-01-25T02:39:36.745Z,60.13
2019-01-25T02:42:05.687Z,84.62
2019-01-25T02:44:34.625Z,64.07
2019-01-25T02:47:03.578Z,58.53
2019-01-25T02:49:32.534Z,60.30
2019-01-25T02:52:01.453Z,59.17
2019-01-25T02:54:30.403Z,58.27
2019-01-25T02:56:59.365Z,62.50
2019-01-25T02:59:28.319Z,56.23
2019-01-25T03:01:57.281Z,58.30
2019-01-25T03:04:26.198Z,58.77
2019-01-25T03:06:55.123Z,59.60
2019-01-25T03:09:24.054Z,57.63
2019-01-25T03:11:52.978Z,59.60
2019-01-25T03:14:21.925Z,59.93
2019-01-25T03:16:50.869Z,61.47
2019-01-25T03:19:19.809Z,57.93
2019-01-25T03:21:48.729Z,89.40
2019-01-25T03:24:17.666Z,65.60
2019-01-25T03:26:46.620Z,63.30
2019-01-25T03:29:15.577Z,61.33
2019-01-25T03:31:44.514Z,60.10
2019-01-25T03:34:13.472Z,58.63
2019-01-25T03:36:42.424Z,62.83
2019-01-25T03:39:11.357Z,59.70
2019-01-25T03:41:40.322Z,61.73
2019-01-25T03:44:09.264Z,57.50
2019-01-25T03:46:38.209Z,61.07
2019-01-25T03:49:07.149Z,59.67
2019-01-25T03:51:36.092Z,60.83
2019-01-25T03:54:05.028Z,59.97
2019-01-25T03:56:33.952Z,58.60
2019-01-25T03:59:02.884Z,60.97
2019-01-25T04:01:31.812Z,59.63
2019-01-25T04:04:00.744Z,61.07
2019-01-25T04:06:29.699Z,59.90
2019-01-25T04:08:58.625Z,59.17
2019-01-25T04:11:27.558Z,59.47
2019-01-25T04:13:56.479Z,57.53
2019-01-25T04:16:25.444Z,62.03
2019-01-25T04:18:54.400Z,60.57
2019-01-25T04:21:23.329Z,61.57
2019-01-25T04:23:52.286Z,62.10
2019-01-25T04:26:21.215Z,60.13
2019-01-25T04:28:50.193Z,62.63
2019-01-25T04:31:19.120Z,57.83
2019-01-25T04:33:48.065Z,60.87
2019-01-25T04:36:17.000Z,63.00
2019-01-25T04:38:45.970Z,61.90
2019-01-25T04:41:14.902Z,58.80
2019-01-25T04:43:43.878Z,58.93
2019-01-25T04:46:12.841Z,89.27
2019-01-25T04:48:41.813Z,90.53
2019-01-25T04:51:10.735Z,91.60
2019-01-25T04:53:39.690Z,69.10
2019-01-25T04:56:08.643Z,63.40
2019-01-25T04:58:37.600Z,60.67
2019-01-25T05:01:07.987Z,61.07
2019-01-25T05:03:36.895Z,62.77
2019-01-25T05:06:06.707Z,59.53
2019-01-25T05:08:35.620Z,57.77
2019-01-25T05:11:04.873Z,58.93
2019-01-25T05:13:33.789Z,59.33
2019-01-25T05:16:02.746Z,58.63
2019-01-25T05:18:31.567Z,59.37
2019-01-25T05:21:00.476Z,61.00
2019-01-25T05:23:29.372Z,61.93
2019-01-25T05:25:58.253Z,60.97
2019-01-25T05:28:27.152Z,59.23
2019-01-25T05:31:03.790Z,62.77
2019-01-25T05:33:32.701Z,57.83
2019-01-25T05:36:01.593Z,57.30
2019-01-25T05:38:30.513Z,58.43
2019-01-25T05:40:59.421Z,60.77
2019-01-25T05:43:28.341Z,61.40
2019-01-25T05:45:57.225Z,60.00
2019-01-25T05:48:29.520Z,59.43
2019-01-25T05:51:02.943Z,59.83
2019-01-25T05:53:31.839Z,61.57
2019-01-25T05:56:00.785Z,55.73
2019-01-25T05:58:29.684Z,58.60
2019-01-25T06:00:58.586Z,57.40
2019-01-25T06:03:27.496Z,56.80
2019-01-25T06:06:03.872Z,57.67
2019-01-25T06:08:33.690Z,56.87
2019-01-25T06:11:09.847Z,58.50
2019-01-25T06:13:39.800Z,58.13
2019-01-25T06:16:08.699Z,58.47
2019-01-25T06:18:37.592Z,58.43
2019-01-25T06:21:06.509Z,54.97
2019-01-25T06:23:35.415Z,58.30
2019-01-25T06:26:05.007Z,57.17
2019-01-25T06:28:33.895Z,55.80
2019-01-25T06:31:02.803Z,57.00
2019-01-25T06:33:31.686Z,57.77
2019-01-25T06:36:00.585Z,56.17
2019-01-25T06:38:29.523Z,58.40
2019-01-25T06:40:58.372Z,55.67
2019-01-25T06:43:27.282Z,54.07
2019-01-25T06:45:56.226Z,55.30
2019-01-25T06:48:25.153Z,56.47
2019-01-25T06:50:54.044Z,54.43
2019-01-25T06:53:22.938Z,55.27
2019-01-25T06:55:51.901Z,76.80
2019-01-25T06:58:55.171Z,80.92
2019-01-25T07:01:57.999Z,58.77
2019-01-25T07:04:26.878Z,78.37
2019-01-25T07:06:55.769Z,58.83
2019-01-25T07:09:24.671Z,55.47
2019-01-25T07:11:53.540Z,52.33
2019-01-25T07:14:22.450Z,54.00
2019-01-25T07:16:51.338Z,54.60
2019-01-25T07:19:20.214Z,54.93
2019-01-25T07:21:49.112Z,55.70
2019-01-25T07:24:18.003Z,54.13
2019-01-25T07:26:46.899Z,53.33
2019-01-25T07:29:15.811Z,55.70
2019-01-25T07:31:46.275Z,54.60
2019-01-25T07:34:13.555Z,54.53
2019-01-25T07:36:42.440Z,53.20
2019-01-25T07:39:21.609Z,56.27
2019-01-25T07:41:50.498Z,52.37
2019-01-25T07:44:19.436Z,55.00
2019-01-25T07:46:48.288Z,82.23
2019-01-25T07:49:17.153Z,86.37
2019-01-25T07:51:46.049Z,61.73
2019-01-25T07:54:14.940Z,58.37
2019-01-25T07:56:43.885Z,57.33
2019-01-25T07:59:12.725Z,55.27
2019-01-25T08:01:41.637Z,54.10
2019-01-25T08:04:13.764Z,54.07
2019-01-25T08:06:43.222Z,54.73
2019-01-25T08:09:17.206Z,54.47
2019-01-25T08:11:49.349Z,56.27
2019-01-25T08:14:18.543Z,57.60
2019-01-25T08:16:50.044Z,55.53
2019-01-25T08:19:19.200Z,55.67
2019-01-25T08:21:50.177Z,56.80
2019-01-25T08:24:25.534Z,56.33
2019-01-25T08:26:54.936Z,56.60
2019-01-25T08:29:28.205Z,53.57
2019-01-25T08:31:57.819Z,56.43
2019-01-25T08:34:27.329Z,54.97
2019-01-25T08:36:56.668Z,53.57
2019-01-25T08:39:29.083Z,57.10
2019-01-25T08:41:59.659Z,54.57
2019-01-25T08:44:29.223Z,56.20
2019-01-25T08:46:58.172Z,55.47
2019-01-25T08:49:27.456Z,53.17
2019-01-25T08:51:59.202Z,54.37
2019-01-25T08:54:28.769Z,80.10
2019-01-25T08:56:58.353Z,60.80
2019-01-25T08:59:27.554Z,57.63
2019-01-25T09:01:56.617Z,57.43
2019-01-25T09:04:33.812Z,58.17
2019-01-25T09:07:05.462Z,55.13
2019-01-25T09:09:34.344Z,55.77
2019-01-25T09:12:03.235Z,57.53
2019-01-25T09:14:32.116Z,58.03
2019-01-25T09:17:00.998Z,57.53
2019-01-25T09:19:29.882Z,56.53
2019-01-25T09:21:58.777Z,56.47
2019-01-25T09:24:27.699Z,55.53
2019-01-25T09:26:56.599Z,58.27
2019-01-25T09:29:25.511Z,60.93
2019-01-25T09:31:54.406Z,57.87
2019-01-25T09:34:23.306Z,56.80
2019-01-25T09:36:52.198Z,56.80
2019-01-25T09:39:21.074Z,57.07
2019-01-25T09:41:49.984Z,57.77
2019-01-25T09:44:18.896Z,56.50
2019-01-25T09:46:47.757Z,58.37
2019-01-25T09:49:16.652Z,55.93
2019-01-25T09:51:45.546Z,57.87
2019-01-25T09:54:14.465Z,56.33
2019-01-25T09:56:43.341Z,56.73
2019-01-25T09:59:12.220Z,54.93
2019-01-25T10:01:41.113Z,56.27
2019-01-25T10:04:10.025Z,56.80
2019-01-25T10:06:38.888Z,55.90
2019-01-25T10:09:09.189Z,57.93
2019-01-25T10:11:38.137Z,56.87
2019-01-25T10:14:06.997Z,60.13
2019-01-25T10:16:35.877Z,55.13
2019-01-25T10:19:04.832Z,56.17
2019-01-25T10:21:33.715Z,56.50
2019-01-25T10:24:02.616Z,53.93
2019-01-25T10:26:31.513Z,56.63
2019-01-25T10:29:00.446Z,82.97
2019-01-25T10:31:29.283Z,87.95
2019-01-25T10:33:58.203Z,64.03
2019-01-25T10:36:27.106Z,87.83
2019-01-25T10:38:56.049Z,67.87
2019-01-25T10:41:24.898Z,63.50
2019-01-25T10:43:53.800Z,63.50
2019-01-25T10:46:22.676Z,61.80
2019-01-25T10:48:51.581Z,62.30
2019-01-25T10:51:20.462Z,64.90
2019-01-25T10:53:49.323Z,61.43
2019-01-25T10:56:18.235Z,62.70
2019-01-25T10:58:47.096Z,61.03
2019-01-25T11:01:16.006Z,64.20
2019-01-25T11:03:46.569Z,62.87
2019-01-25T11:06:13.770Z,62.37
2019-01-25T11:08:42.641Z,58.53
2019-01-25T11:11:11.536Z,56.87
2019-01-25T11:13:40.436Z,56.57
2019-01-25T11:16:11.917Z,78.37
2019-01-25T11:18:38.245Z,57.17
2019-01-25T11:21:07.152Z,53.50
2019-01-25T11:23:36.023Z,50.67
2019-01-25T11:26:04.932Z,47.07
2019-01-25T11:28:33.807Z,47.17
2019-01-25T11:31:02.690Z,44.97
2019-01-25T11:33:31.575Z,46.23
2019-01-25T11:36:00.497Z,45.00
2019-01-25T11:38:29.386Z,46.47
2019-01-25T11:40:58.262Z,45.90
2019-01-25T11:43:27.178Z,47.60
2019-01-25T11:45:56.064Z,47.93
2019-01-25T11:48:24.976Z,45.83
2019-01-25T11:50:53.878Z,49.00
2019-01-25T11:53:24.357Z,45.77
2019-01-25T11:55:53.189Z,45.57
2019-01-25T11:58:22.138Z,38.00
2019-01-25T12:00:51.033Z,37.73
2019-01-25T12:03:19.945Z,35.90
2019-01-25T12:05:48.807Z,30.77
2019-01-25T12:08:17.681Z,32.17
2019-01-25T12:10:46.578Z,31.73
2019-01-25T12:13:16.252Z,31.50
2019-01-25T12:15:44.352Z,31.63
2019-01-25T12:18:13.257Z,43.37
2019-01-25T12:20:42.133Z,34.37
2019-01-25T12:23:11.999Z,32.63
2019-01-25T12:25:39.919Z,31.53
2019-01-25T12:28:08.803Z,41.77
2019-01-25T12:30:39.011Z,33.57
2019-01-25T12:33:08.964Z,42.58
2019-01-25T12:35:40.189Z,33.53
2019-01-25T12:38:09.100Z,31.60
2019-01-25T12:40:42.153Z,29.60
2019-01-25T12:43:06.852Z,30.80
2019-01-25T12:45:35.774Z,41.77
2019-01-25T12:48:04.760Z,33.93
2019-01-25T12:50:49.006Z,31.90
2019-01-25T12:53:15.335Z,30.33
2019-01-25T12:55:44.219Z,30.83
2019-01-25T12:58:13.122Z,32.60
2019-01-25T13:00:42.373Z,43.30
2019-01-25T13:03:11.474Z,34.67
2019-01-25T13:05:40.360Z,34.20
2019-01-25T13:08:09.254Z,33.00
2019-01-25T13:10:38.125Z,32.20
2019-01-25T13:13:07.032Z,31.80
2019-01-25T13:15:35.899Z,30.80
2019-01-25T13:18:04.790Z,33.73
2019-01-25T13:20:33.664Z,34.47
2019-01-25T13:23:02.544Z,33.90
2019-01-25T13:25:31.414Z,33.47
2019-01-25T13:28:00.297Z,34.87
2019-01-25T13:30:29.213Z,32.80
2019-01-25T13:32:58.120Z,46.77
2019-01-25T13:35:26.980Z,47.43
2019-01-25T13:37:55.860Z,36.13
2019-01-25T13:40:24.947Z,34.00
2019-01-25T13:42:53.825Z,33.40
2019-01-25T13:45:22.953Z,36.43
2019-01-25T13:47:51.884Z,36.33
2019-01-25T13:50:22.907Z,34.03
2019-01-25T13:52:51.781Z,35.20
2019-01-25T13:55:20.704Z,33.17
2019-01-25T13:57:49.566Z,35.53
2019-01-25T14:00:29.443Z,33.80
2019-01-25T14:02:58.336Z,34.53
2019-01-25T14:05:27.218Z,33.37
2019-01-25T14:07:56.173Z,34.77
2019-01-25T14:10:29.794Z,34.60
2019-01-25T14:12:58.695Z,34.83
2019-01-25T14:15:31.057Z,33.13
2019-01-25T14:18:00.399Z,34.60
2019-01-25T14:20:34.089Z,33.97
2019-01-25T14:23:10.483Z,35.50
2019-01-25T14:25:39.712Z,33.27
2019-01-25T14:28:08.823Z,36.37
2019-01-25T14:30:39.839Z,36.53
2019-01-25T14:33:09.510Z,34.23
2019-01-25T14:35:39.372Z,33.57
2019-01-25T14:38:09.293Z,36.10
2019-01-25T14:40:38.206Z,36.17
2019-01-25T14:43:07.117Z,34.60
2019-01-25T14:45:36.784Z,34.20
2019-01-25T14:48:06.282Z,34.20
2019-01-25T14:50:35.144Z,34.53
2019-01-25T14:53:04.038Z,32.27
2019-01-25T14:55:32.911Z,33.17
2019-01-25T14:58:01.808Z,32.53
2019-01-25T15:00:30.822Z,32.80
2019-01-25T15:02:59.729Z,33.90
2019-01-25T15:05:28.659Z,35.33
2019-01-25T15:07:57.623Z,48.30
2019-01-25T15:10:26.529Z,49.80
2019-01-25T15:12:57.352Z,49.93
2019-01-25T15:15:26.301Z,33.83
2019-01-25T15:17:55.238Z,49.40
2019-01-25T15:20:26.369Z,49.17
2019-01-25T15:22:57.981Z,36.27
2019-01-25T15:25:26.921Z,35.60
2019-01-25T15:27:55.799Z,36.57
2019-01-25T15:30:26.822Z,35.23
2019-01-25T15:32:55.714Z,35.57
2019-01-25T15:35:24.590Z,35.13
2019-01-25T15:37:53.485Z,36.77
2019-01-25T15:40:22.430Z,36.03
2019-01-25T15:42:54.775Z,34.47
2019-01-25T15:45:26.834Z,36.40
2019-01-25T15:47:55.949Z,35.83
2019-01-25T15:50:27.466Z,37.67
2019-01-25T15:52:56.626Z,36.17
2019-01-25T15:55:25.969Z,50.67
2019-01-25T15:57:55.165Z,38.93
2019-01-25T16:00:25.229Z,35.13
2019-01-25T16:02:54.190Z,36.60
2019-01-25T16:05:23.697Z,34.53
2019-01-25T16:07:52.660Z,36.00
2019-01-25T16:10:21.806Z,37.70
2019-01-25T16:12:51.197Z,36.67
2019-01-25T16:15:25.338Z,39.87
2019-01-25T16:17:54.214Z,38.90
2019-01-25T16:20:23.158Z,39.43
2019-01-25T16:22:52.033Z,55.97
2019-01-25T16:25:26.443Z,43.37
2019-01-25T16:27:55.336Z,40.40
2019-01-25T16:30:26.362Z,39.20
2019-01-25T16:32:55.252Z,39.40
2019-01-25T16:35:24.139Z,38.73
2019-01-25T16:37:53.022Z,40.20
2019-01-25T16:40:22.645Z,39.93
2019-01-25T16:42:51.518Z,56.48
2019-01-25T16:45:25.848Z,42.97
2019-01-25T16:47:54.809Z,43.43
2019-01-25T16:50:24.126Z,39.90
2019-01-25T16:52:52.521Z,38.70
2019-01-25T16:55:21.411Z,39.20
2019-01-25T16:57:50.314Z,39.53
2019-01-25T17:00:22.050Z,37.43
2019-01-25T17:02:50.942Z,37.40
2019-01-25T17:05:19.809Z,38.33
2019-01-25T17:07:48.719Z,38.43
2019-01-25T17:10:17.676Z,38.63
2019-01-25T17:12:46.538Z,37.67
2019-01-25T17:15:15.489Z,38.17
2019-01-25T17:17:44.377Z,37.87
2019-01-25T17:20:20.022Z,37.63
2019-01-25T17:22:42.798Z,37.80
2019-01-25T17:25:11.703Z,35.20
2019-01-25T17:27:40.575Z,38.73
2019-01-25T17:30:19.202Z,32.83
2019-01-25T17:32:48.077Z,36.30
2019-01-25T17:35:17.070Z,34.83
2019-01-25T17:37:46.023Z,35.67
2019-01-25T17:40:16.204Z,34.77
2019-01-25T17:42:45.084Z,34.23
2019-01-25T17:45:14.048Z,36.20
2019-01-25T17:47:42.956Z,32.90
2019-01-25T17:50:12.592Z,35.27
2019-01-25T17:52:41.554Z,49.18
2019-01-25T17:55:10.881Z,36.57
2019-01-25T17:57:39.776Z,34.40
2019-01-25T18:00:17.701Z,34.03
2019-01-25T18:02:46.606Z,32.90
2019-01-25T18:05:15.462Z,32.53
2019-01-25T18:07:44.399Z,35.93
2019-01-25T18:10:14.896Z,35.47
2019-01-25T18:12:43.766Z,36.53
2019-01-25T18:15:12.818Z,33.07
2019-01-25T18:17:41.707Z,32.80
2019-01-25T18:20:12.694Z,29.23
2019-01-25T18:22:41.960Z,32.10
2019-01-25T18:25:12.817Z,32.00
2019-01-25T18:27:44.862Z,32.77
2019-01-25T18:30:21.249Z,32.00
2019-01-25T18:32:50.132Z,44.15
2019-01-25T18:35:19.045Z,32.80
2019-01-25T18:37:47.915Z,29.87
2019-01-25T18:40:16.870Z,30.13
2019-01-25T18:42:45.763Z,36.57
2019-01-25T18:45:14.653Z,29.87
2019-01-25T18:47:46.260Z,27.60
2019-01-25T18:50:15.296Z,28.97
2019-01-25T18:52:44.178Z,28.07
2019-01-25T18:55:15.575Z,27.27
2019-01-25T18:57:44.504Z,26.70
2019-01-25T19:00:16.430Z,27.90
2019-01-25T19:02:45.475Z,28.37
2019-01-25T19:05:14.348Z,39.40
2019-01-25T19:07:43.240Z,29.83
2019-01-25T19:10:15.393Z,27.30
2019-01-25T19:12:44.273Z,28.40
2019-01-25T19:15:14.739Z,27.47
2019-01-25T19:17:43.680Z,26.97
2019-01-25T19:20:13.135Z,28.03
2019-01-25T19:22:42.002Z,29.07
2019-01-25T19:25:10.953Z,26.70
2019-01-25T19:27:39.793Z,27.13
2019-01-25T19:30:14.111Z,28.70
2019-01-25T19:32:43.005Z,26.30
2019-01-25T19:35:11.950Z,27.07
2019-01-25T19:37:40.839Z,26.70
2019-01-25T19:40:11.781Z,27.63
2019-01-25T19:42:40.651Z,25.57
2019-01-25T19:45:11.975Z,24.90
2019-01-25T19:47:39.091Z,23.03
2019-01-25T19:50:09.928Z,26.00
2019-01-25T19:52:38.858Z,26.03
2019-01-25T19:55:10.979Z,25.30
2019-01-25T19:57:39.873Z,25.10
2019-01-25T20:00:15.476Z,24.87
2019-01-25T20:02:44.390Z,23.93
2019-01-25T20:05:14.206Z,25.37
2019-01-25T20:07:43.114Z,26.90
2019-01-25T20:10:12.035Z,26.17
2019-01-25T20:12:40.938Z,37.15
2019-01-25T20:15:19.243Z,27.97
2019-01-25T20:17:40.820Z,26.30
2019-01-25T20:20:13.308Z,26.17
2019-01-25T20:22:42.264Z,24.47
2019-01-25T20:25:11.153Z,25.23
2019-01-25T20:27:40.032Z,24.87
2019-01-25T20:30:12.368Z,23.93
2019-01-25T20:32:41.400Z,23.07
2019-01-25T20:35:12.302Z,25.40
2019-01-25T20:37:41.307Z,24.30
2019-01-25T20:40:12.310Z,26.63
2019-01-25T20:42:41.322Z,25.07
2019-01-25T20:45:13.269Z,24.07
2019-01-25T20:47:42.196Z,24.37
2019-01-25T20:50:13.623Z,36.50
2019-01-25T20:52:42.512Z,27.20
2019-01-25T20:55:12.722Z,24.33
2019-01-25T20:57:41.630Z,25.43
2019-01-25T21:00:13.590Z,35.15
2019-01-25T21:02:42.489Z,28.50
2019-01-25T21:05:11.393Z,27.97
2019-01-25T21:07:40.287Z,28.30
2019-01-25T21:10:11.611Z,28.67
2019-01-25T21:12:40.494Z,28.53
2019-01-25T21:15:11.064Z,27.80
2019-01-25T21:17:39.923Z,30.67
2019-01-25T21:20:14.637Z,29.90
2019-01-25T21:22:43.561Z,28.40
2019-01-25T21:25:12.458Z,28.43
2019-01-25T21:27:41.347Z,29.40
2019-01-25T21:30:13.878Z,27.80
2019-01-25T21:32:42.785Z,30.87
2019-01-25T21:35:11.776Z,31.87
2019-01-25T21:37:40.656Z,31.17
2019-01-25T21:40:14.906Z,30.67
2019-01-25T21:42:43.811Z,29.13
2019-01-25T21:45:14.821Z,32.10
2019-01-25T21:47:43.733Z,29.33
2019-01-25T21:50:14.261Z,38.07
2019-01-25T21:52:43.159Z,32.07
2019-01-25T21:55:12.746Z,35.50
2019-01-25T21:57:41.639Z,36.97
2019-01-25T22:00:16.370Z,38.63
2019-01-25T22:02:45.268Z,37.03
2019-01-25T22:05:14.161Z,36.67
2019-01-25T22:07:43.046Z,40.63
2019-01-25T22:10:14.903Z,41.87
2019-01-25T22:12:43.824Z,40.27
2019-01-25T22:15:12.913Z,41.67
2019-01-25T22:17:41.783Z,41.87
2019-01-25T22:20:14.353Z,42.60
2019-01-25T22:22:43.252Z,42.27
2019-01-25T22:25:12.455Z,42.43
2019-01-25T22:27:41.376Z,38.70
2019-01-25T22:30:12.867Z,42.57
2019-01-25T22:32:41.736Z,43.20
2019-01-25T22:35:10.623Z,70.90
2019-01-25T22:37:39.508Z,49.50
2019-01-25T22:40:11.058Z,43.43
2019-01-25T22:42:39.928Z,47.17
2019-01-25T22:45:11.134Z,46.73
2019-01-25T22:47:40.064Z,45.30
2019-01-25T22:50:20.856Z,47.27
2019-01-25T22:52:49.743Z,46.87
2019-01-25T22:55:18.730Z,48.53
2019-01-25T22:57:47.647Z,49.13
2019-01-25T23:00:48.217Z,50.87
2019-01-25T23:03:20.085Z,51.00
2019-01-25T23:06:21.212Z,52.53
2019-01-25T23:08:50.114Z,49.83
2019-01-25T23:11:18.993Z,48.73
2019-01-25T23:13:47.912Z,50.37
2019-01-25T23:16:16.787Z,77.82
2019-01-25T23:18:45.703Z,55.37
2019-01-25T23:21:14.571Z,55.60
2019-01-25T23:23:43.495Z,51.07
2019-01-25T23:26:12.377Z,50.93
2019-01-25T23:28:41.269Z,49.57
2019-01-25T23:31:10.143Z,51.13
2019-01-25T23:33:39.047Z,48.90
2019-01-25T23:36:07.942Z,49.93
2019-01-25T23:38:36.809Z,51.23
2019-01-25T23:41:05.710Z,45.33
2019-01-25T23:43:34.580Z,49.20
2019-01-25T23:46:03.501Z,47.50
2019-01-25T23:48:32.375Z,48.00
2019-01-25T23:51:01.340Z,43.17
2019-01-25T23:53:30.189Z,47.90
2019-01-25T23:55:59.091Z,49.23
2019-01-25T23:58:27.977Z,47.97
